Weather at Altisurface de Valloire - Bonnenuit

Public forecast

Using degrees Celsius for public forecast. Weather courtesy of forecast.io.

Closest aviation weather report (METAR) to Altisurface de Valloire - Bonnenuit

Closest report is Chambéry-Savoie Airport, 38.5 nm (71.3 km) NW. Retrieved 2020/09/25 02:30 UTC (16 minutes ago):

LFLB 250230Z AUTO /////KT //// R18///// R36///// // ////// ///// Q////

Closest aviation forecast (TAF) to Altisurface de Valloire - Bonnenuit

Closest forecast is Chambéry-Savoie Airport, 38.5 nm (71.3 km) NW. Retrieved 2020-09-25 00:47 UTC (2 hours ago):

TAF LFLB 242300Z 2500/2524 20008KT CAVOK TEMPO 2501/2507 5000 SHRA BKN045TCU TEMPO 2502/2504 3000 +RA PROB40 TEMPO 2504/2507 BKN012 BECMG 2507/2509 SCT035TCU TEMPO 2513/2524 VRB15G30KT 4000 SHRA SCT020 BKN045TCU PROB30 TEMPO 2517/2520 3000 TSRAGS BKN035CB BECMG 2522/2524 36008KT